大連 の空港の天気 - METARとTAF

大連周水子国際空港 ( ZYTL / DLC ) - 中国 遼寧省大連市
飛行場実況気象(Metar)
観測時間11/12 11:30 CST (11/12 03:30 UTC)
風向・風速南南東 5m/s
視程10km以上
天気現象
なし
気温15℃
湿度63%
気圧1019hPa
METARZYTL 120330Z 16005MPS 130V210 CAVOK 15/08 Q1019 NOSIG
過去の天気等 Google飛行場航空写真 Wunderground天気予報

過去48時間のMETAR

飛行場予報(TAF)
発表時間: 11/12 03:07 CST (11/11 19:07 UTC)
予報対象時間: 12日8時 CST ~ 13日8時 CST
風向・風速南 4m/s
視程10km以上
なし
TAF ZYTL 111907Z 1200/1224 18004MPS CAVOK TX16/1206Z TN03/1220Z